Time;durP1;ratioP1;P1;durP2;ratioP2;P2;SDS_P1;SDS_P2;PMS_P1;PMS_P2;Temp;Humidity;BMP_temperature;BMP_pressure;BME280_temperature;BME280_humidity;BME280_pressure;Samples;Min_cycle;Max_cycle;Signal;HPM_P1;HPM_P2
2023/02/13 00:00:40;;;;;;;11.30;9.20;;;4.10;96.10;;;4.00;83.70;99980.84;5064762;28;20472;-80
2023/02/13 00:03:10;;;;;;;14.90;11.67;;;4.00;96.20;;;3.13;83.43;99838.09;5044627;28;20472;-76
2023/02/13 00:05:38;;;;;;;12.53;10.57;;;4.00;96.60;;;3.82;83.61;99978.69;5047527;28;20453;-79
2023/02/13 00:08:05;;;;;;;11.70;10.07;;;3.90;96.80;;;3.78;83.73;99971.88;5065927;28;20552;-78
2023/02/13 00:10:33;;;;;;;14.63;10.97;;;3.80;97.40;;;3.42;84.62;99936.44;5031304;28;20452;-81
2023/02/13 00:13:00;;;;;;;14.77;10.47;;;3.70;97.80;;;3.40;84.64;99949.91;5062043;28;20553;-80
2023/02/13 00:15:28;;;;;;;13.80;11.10;;;3.60;98.80;;;3.55;84.69;99985.25;5063143;28;20469;-77
2023/02/13 00:17:55;;;;;;;13.03;10.57;;;3.60;99.30;;;3.52;84.86;99969.47;5046978;28;20458;-78
2023/02/13 00:20:24;;;;;;;12.70;9.90;;;3.60;99.90;;;3.48;85.99;99974.19;5051282;28;20791;-78
2023/02/13 00:22:51;;;;;;;11.87;9.97;;;3.60;99.90;;;3.21;86.30;99934.47;5049885;28;20544;-79
2023/02/13 00:25:19;;;;;;;11.10;9.90;;;3.60;99.90;;;3.32;86.40;99974.56;5047689;28;20549;-76
2023/02/13 00:27:48;;;;;;;12.70;10.67;;;3.60;99.90;;;2.97;87.17;99914.91;5081067;28;20464;-76
2023/02/13 00:30:16;;;;;;;13.07;10.97;;;3.50;99.90;;;2.87;86.86;99903.25;5067784;28;20658;-76
2023/02/13 00:32:44;;;;;;;18.33;12.50;;;3.50;99.90;;;2.93;87.70;99942.84;5053495;28;20442;-75
2023/02/13 00:35:11;;;;;;;19.90;12.73;;;3.40;99.90;;;3.05;88.22;99989.09;5056658;28;20586;-75
2023/02/13 00:37:40;;;;;;;23.40;15.33;;;3.40;99.90;;;2.93;89.12;99982.91;5052620;28;20691;-77
2023/02/13 00:40:09;;;;;;;23.60;16.43;;;3.30;99.90;;;2.93;89.61;99982.91;5050942;28;20454;-79
2023/02/13 00:42:36;;;;;;;19.50;17.40;;;3.30;99.90;;;2.86;90.17;99975.47;5051844;28;20454;-76
2023/02/13 00:45:04;;;;;;;22.00;18.17;;;3.20;99.90;;;2.76;89.97;99964.66;5045381;28;20546;-81
2023/02/13 00:47:32;;;;;;;23.17;17.67;;;3.20;99.90;;;2.87;90.02;99985.19;5054334;28;20467;-77
2023/02/13 00:49:59;;;;;;;26.37;17.90;;;3.20;99.90;;;2.38;90.88;99923.91;5054124;28;20456;-77
2023/02/13 00:52:26;;;;;;;23.73;16.90;;;3.10;99.90;;;2.70;90.01;99976.66;5051400;28;20457;-80
2023/02/13 00:54:55;;;;;;;23.07;16.93;;;3.00;99.90;;;2.51;90.54;99972.72;5066377;28;20952;-80
2023/02/13 00:57:23;;;;;;;24.63;18.10;;;2.80;99.90;;;2.44;90.82;99971.44;5049843;28;20487;-79
2023/02/13 00:59:50;;;;;;;24.30;18.73;;;2.70;99.90;;;2.18;92.41;99960.91;5050945;28;20813;-79
2023/02/13 01:02:17;;;;;;;29.63;19.93;;;2.60;99.90;;;2.11;92.39;99955.16;5052287;28;20469;-79
2023/02/13 01:04:45;;;;;;;25.07;18.20;;;2.50;99.90;;;2.37;91.83;99975.56;5071152;28;20769;-79
2023/02/13 01:07:12;;;;;;;27.90;18.77;;;2.60;99.90;;;2.32;91.46;99977.69;5065402;28;20449;-76
2023/02/13 01:09:40;;;;;;;24.23;18.77;;;2.50;99.90;;;2.16;93.10;99989.50;5045977;28;20488;-80
2023/02/13 01:12:09;;;;;;;30.00;20.30;;;2.40;99.90;;;2.19;92.71;99973.25;5047361;28;20969;-76
2023/02/13 01:14:36;;;;;;;26.53;17.80;;;2.30;99.90;;;2.09;92.07;99961.59;5066602;28;20541;-77
2023/02/13 01:17:04;;;;;;;23.23;18.13;;;2.40;99.90;;;2.13;92.99;99973.72;5077491;28;20503;-77
2023/02/13 01:19:32;;;;;;;25.33;18.53;;;2.40;99.90;;;1.83;92.93;99964.34;5071651;28;20461;-78
2023/02/13 01:21:59;;;;;;;23.43;17.83;;;2.20;99.90;;;1.62;93.15;99916.09;5031624;28;20814;-78
2023/02/13 01:24:28;;;;;;;27.30;18.50;;;2.20;99.90;;;1.57;93.86;99940.41;5047489;28;20955;-76
2023/02/13 01:26:57;;;;;;;29.23;20.17;;;2.10;99.90;;;1.75;93.85;99974.72;5047964;28;20504;-76
2023/02/13 01:29:26;;;;;;;26.67;18.30;;;2.00;99.90;;;1.22;93.97;99914.50;5051017;28;20445;-77
2023/02/13 01:31:53;;;;;;;27.50;19.47;;;1.90;99.90;;;1.20;94.28;99927.06;5044543;28;20458;-77
2023/02/13 01:34:21;;;;;;;26.50;18.60;;;1.80;99.90;;;1.18;93.62;99905.88;5048751;28;20848;-79
2023/02/13 01:36:50;;;;;;;25.07;18.60;;;1.80;99.90;;;1.40;94.11;99946.97;5079530;28;20451;-76
2023/02/13 01:39:18;;;;;;;29.00;20.30;;;1.70;99.90;;;1.24;94.57;99955.19;5050450;28;20461;-81
2023/02/13 01:41:45;;;;;;;26.57;18.80;;;1.60;99.90;;;1.39;94.29;99974.56;5064557;28;20813;-78
2023/02/13 01:44:50;;;;;;;25.67;17.77;;;1.60;99.90;;;1.49;93.02;99953.47;5049330;28;20515;-76
2023/02/13 01:47:24;;;;;;;26.50;17.57;;;1.70;99.90;;;1.61;92.69;99976.56;5051489;28;20453;-79
2023/02/13 01:50:02;;;;;;;25.00;17.27;;;1.80;99.90;;;1.53;91.90;99973.59;5047942;28;20543;-80
2023/02/13 01:52:30;;;;;;;26.60;18.30;;;1.80;99.90;;;1.38;92.24;99940.91;5053466;28;20461;-78
2023/02/13 01:54:57;;;;;;;22.70;17.50;;;1.90;99.90;;;0.79;92.90;99859.81;5082973;28;20469;-78
2023/02/13 01:57:28;;;;;;;26.57;18.57;;;1.90;99.90;;;1.03;92.39;99907.81;5051178;28;20457;-81
2023/02/13 02:00:07;;;;;;;24.13;18.47;;;1.80;99.90;;;1.10;91.94;99925.03;5052607;28;20441;-79
2023/02/13 02:02:39;;;;;;;26.00;18.57;;;1.70;99.90;;;1.23;93.08;99966.78;5050824;28;20523;-78
2023/02/13 02:05:08;;;;;;;26.23;18.47;;;1.50;99.90;;;1.07;93.92;99946.56;5045050;28;20603;-77
2023/02/13 02:07:39;;;;;;;29.27;17.90;;;1.60;99.90;;;1.18;93.97;99971.59;5047189;28;21018;-83
2023/02/13 02:10:11;;;;;;;27.57;17.77;;;1.50;99.90;;;1.22;93.96;99975.75;5044009;28;20461;-79
2023/02/13 02:12:45;;;;;;;22.83;15.90;;;1.50;99.90;;;0.86;93.16;99911.63;5080887;28;20449;-82
2023/02/13 02:15:15;;;;;;;23.53;17.60;;;1.50;99.90;;;0.62;93.10;99874.28;5047142;28;20490;-80
2023/02/13 02:17:42;;;;;;;23.13;15.70;;;1.40;99.90;;;0.76;93.42;99924.72;5047470;28;20454;-75
2023/02/13 02:20:25;;;;;;;25.17;15.20;;;1.40;99.90;;;1.13;92.97;99962.09;5046922;28;20563;-78
2023/02/13 02:23:37;;;;;;;19.90;14.70;;;1.40;99.90;;;1.17;92.42;99972.56;5059110;28;20534;-76
2023/02/13 02:26:49;;;;;;;22.10;14.83;;;1.40;99.90;;;0.99;92.32;99943.59;5046085;28;20459;-78
2023/02/13 02:29:57;;;;;;;19.00;14.33;;;1.40;99.90;;;0.94;93.19;99965.22;5058816;28;20455;-76
2023/02/13 02:33:03;;;;;;;22.43;16.37;;;1.40;99.90;;;0.84;94.38;99969.44;5044803;28;20465;-78
2023/02/13 02:35:44;;;;;;;19.00;14.73;;;1.40;99.90;;;0.88;93.72;99970.94;5030982;28;20517;-79
2023/02/13 02:38:37;;;;;;;21.57;15.33;;;1.30;99.90;;;0.87;93.84;99968.41;5049814;28;20471;-81
2023/02/13 02:41:11;;;;;;;20.43;14.27;;;1.30;99.90;;;0.79;94.38;99966.25;5042241;28;20457;-80
2023/02/13 02:43:52;;;;;;;20.70;15.30;;;1.30;99.90;;;0.76;93.95;99972.63;5038927;28;20945;-82
2023/02/13 02:46:29;;;;;;;20.07;14.83;;;1.20;99.90;;;0.72;93.32;99979.13;5059831;28;20448;-82
2023/02/13 02:52:02;;;;;;;18.10;14.30;;;1.00;99.90;;;0.60;93.42;99974.63;5011553;28;20552;-81
2023/02/13 02:57:25;;;;;;;17.83;13.20;;;0.80;99.90;;;0.33;94.36;99968.41;5034275;28;20479;-82
2023/02/13 03:13:17;;;;;;;18.50;13.60;;;0.70;99.90;;;0.04;94.17;99941.06;5070961;28;20900;-81
2023/02/13 03:13:51;;;;;;;19.37;13.80;;;0.40;99.90;;;-0.03;94.82;99944.13;5076034;28;20484;-81
2023/02/13 03:24:57;;;;;;;19.33;13.63;;;0.50;99.90;;;0.07;92.97;99935.53;5068985;28;20496;-77
2023/02/13 03:30:34;;;;;;;18.23;13.53;;;0.60;99.90;;;0.10;92.74;99949.47;5086466;28;20451;-77
2023/02/13 03:33:20;;;;;;;20.53;14.10;;;0.60;99.90;;;0.22;92.47;99971.75;5044605;28;20464;-76
2023/02/13 03:38:53;;;;;;;18.53;12.50;;;0.50;99.90;;;-0.09;93.45;99947.16;5051668;28;20835;-73
2023/02/13 03:41:25;;;;;;;22.43;13.67;;;0.60;99.90;;;-0.10;93.70;99953.44;5038446;28;20465;-74
2023/02/13 03:44:07;;;;;;;20.63;14.33;;;0.50;99.90;;;-0.37;93.53;99925.06;5058861;28;20550;-75
2023/02/13 03:46:40;;;;;;;21.03;13.80;;;0.50;99.90;;;-0.07;94.48;99977.19;5038596;28;20461;-73
2023/02/13 03:52:05;;;;;;;19.80;13.70;;;0.50;99.90;;;-0.35;93.42;99955.03;5083709;28;20453;-76
2023/02/13 04:00:20;;;;;;;16.37;12.50;;;0.30;99.90;;;-0.25;94.78;99979.19;5051802;28;20453;-75
2023/02/13 04:02:57;;;;;;;19.33;13.80;;;0.30;99.90;;;-0.48;93.80;99938.16;5048177;28;21023;-77
2023/02/13 04:05:29;;;;;;;18.10;12.30;;;0.20;99.90;;;-0.68;93.49;99905.75;5045396;28;20449;-78
2023/02/13 04:07:56;;;;;;;20.30;13.60;;;0.30;99.90;;;-0.25;94.20;99996.94;5046103;28;20460;-76
2023/02/13 04:10:32;;;;;;;18.87;11.97;;;0.20;99.90;;;-0.41;94.06;99976.66;5067996;28;20459;-78
2023/02/13 04:13:10;;;;;;;19.40;12.13;;;0.20;99.90;;;-0.39;93.84;99972.09;5041052;28;20459;-74
2023/02/13 04:15:43;;;;;;;22.07;13.03;;;0.20;99.90;;;-0.29;93.64;99991.81;5041752;28;20477;-76
2023/02/13 04:18:16;;;;;;;19.60;13.30;;;0.10;99.90;;;-0.69;94.02;99957.13;5041204;28;20455;-75
2023/02/13 04:20:44;;;;;;;16.43;12.37;;;0.10;99.90;;;-0.41;94.74;99997.06;5034684;28;20450;-74
2023/02/13 04:23:13;;;;;;;16.97;12.70;;;0.10;99.90;;;-0.88;94.41;99945.00;5046417;28;20468;-75
2023/02/13 04:25:46;;;;;;;20.00;13.20;;;0.00;99.90;;;-0.75;95.42;99968.13;5056233;28;20455;-77
2023/02/13 04:28:13;;;;;;;17.80;11.47;;;0.00;99.90;;;-0.61;95.74;99996.47;5050278;28;20547;-75
2023/02/13 04:30:42;;;;;;;16.73;12.33;;;0.00;99.90;;;-0.63;95.85;100001.91;5048595;28;20503;-76
2023/02/13 04:33:11;;;;;;;37.90;14.63;;;-0.10;99.90;;;-1.39;95.59;99859.72;5046372;28;20934;-75
2023/02/13 04:35:38;;;;;;;25.37;12.67;;;0.00;99.90;;;-0.93;96.31;99975.44;5039465;28;20496;-77
2023/02/13 04:38:06;;;;;;;58.00;15.87;;;-0.10;99.90;;;-0.83;97.31;99994.28;5046732;28;20452;-75
2023/02/13 04:40:34;;;;;;;43.40;14.43;;;-0.10;99.90;;;-1.08;97.04;99954.19;5075614;28;20448;-74
2023/02/13 04:43:03;;;;;;;21.47;12.03;;;-0.20;99.90;;;-1.57;97.25;99860.72;5051026;28;20532;-74
2023/02/13 04:45:30;;;;;;;32.37;13.70;;;-0.20;99.90;;;-0.64;96.83;99986.94;5062052;28;20469;-74
2023/02/13 04:47:59;;;;;;;36.50;13.17;;;-0.20;99.90;;;-0.84;96.84;99958.06;5043733;28;20457;-76
2023/02/13 04:50:26;;;;;;;53.00;13.00;;;-0.20;99.90;;;-1.61;97.05;99858.34;5041365;28;20973;-74
2023/02/13 04:52:55;;;;;;;56.17;14.77;;;-0.20;99.90;;;-1.24;97.42;99935.69;5045339;28;20464;-76
2023/02/13 04:55:23;;;;;;;54.93;15.40;;;-0.20;99.90;;;-0.84;97.18;99968.69;5045969;28;21005;-76
2023/02/13 04:57:53;;;;;;;62.83;14.77;;;-0.20;99.90;;;-0.87;97.42;99985.69;5048633;28;20987;-75
2023/02/13 05:00:24;;;;;;;63.47;12.43;;;-0.20;99.90;;;-0.86;97.23;99982.09;5061910;28;20519;-76
2023/02/13 05:02:53;;;;;;;52.27;14.77;;;-0.20;99.90;;;-0.67;97.60;99997.75;5049754;28;21038;-75
2023/02/13 05:05:21;;;;;;;31.70;12.57;;;-0.20;99.90;;;-0.61;96.78;99991.16;5043805;28;20456;-73
2023/02/13 05:07:48;;;;;;;44.63;12.97;;;-0.10;99.90;;;-0.87;96.66;99970.59;5061324;28;20796;-74
2023/02/13 05:10:17;;;;;;;70.57;16.77;;;-0.20;99.90;;;-0.98;97.10;99991.66;5047508;28;20458;-74
2023/02/13 05:12:45;;;;;;;60.83;14.83;;;-0.30;99.90;;;-0.89;97.74;99987.59;5043746;28;20956;-73
2023/02/13 05:15:13;;;;;;;35.43;14.10;;;-0.30;99.90;;;-1.90;97.64;99837.94;5041825;28;20460;-77
2023/02/13 05:17:44;;;;;;;56.63;14.73;;;-0.30;99.90;;;-0.87;97.13;100001.63;5080576;28;20546;-75
2023/02/13 05:20:13;;;;;;;39.93;14.13;;;-0.30;99.90;;;-0.86;97.41;99990.88;5043101;28;20451;-74
2023/02/13 05:25:30;;;;;;;52.00;14.37;;;-0.30;99.90;;;-0.86;97.89;99990.88;5037280;28;20964;-78
2023/02/13 05:27:58;;;;;;;117.97;20.60;;;-0.30;99.90;;;-0.74;97.83;100007.00;5042739;28;20545;-74
2023/02/13 05:30:25;;;;;;;59.80;16.30;;;-0.30;99.90;;;-0.70;97.20;99997.06;5043661;28;20461;-77
2023/02/13 05:32:54;;;;;;;73.93;16.43;;;-0.30;99.90;;;-0.79;97.02;99979.91;5040731;28;20463;-76
2023/02/13 05:35:22;;;;;;;65.57;18.10;;;-0.20;99.90;;;-1.15;98.16;99955.50;5070796;28;20550;-73
2023/02/13 05:37:50;;;;;;;70.13;15.23;;;-0.30;99.90;;;-1.39;98.05;99926.00;5039230;28;20539;-74
2023/02/13 05:40:18;;;;;;;66.23;15.20;;;-0.30;99.90;;;-1.08;98.00;99993.97;5044011;28;20468;-74
2023/02/13 05:42:45;;;;;;;78.17;16.70;;;-0.20;99.90;;;-0.93;97.97;100008.16;5041811;28;20483;-71
2023/02/13 05:45:12;;;;;;;104.73;21.70;;;-0.30;99.90;;;-0.89;98.97;100011.47;5045198;28;20558;-70
2023/02/13 05:47:39;;;;;;;65.77;17.13;;;-0.30;99.90;;;-0.77;98.76;100020.47;5049289;28;20969;-69
2023/02/13 05:50:09;;;;;;;64.07;18.10;;;-0.30;99.90;;;-0.94;98.17;100017.06;5042982;28;20523;-70
2023/02/13 05:52:36;;;;;;;49.30;15.83;;;-0.20;99.90;;;-0.94;98.64;100021.50;5038171;28;20493;-71
2023/02/13 05:55:05;;;;;;;57.63;17.67;;;-0.30;99.90;;;-0.67;98.97;100012.81;5037978;28;20454;-72
2023/02/13 05:57:32;;;;;;;45.93;15.73;;;-0.10;99.90;;;-0.63;98.31;100020.50;5039453;28;20475;-71
2023/02/13 05:59:59;;;;;;;53.97;17.57;;;-0.10;99.90;;;-0.87;98.87;100036.94;5038027;28;20542;-71
2023/02/13 06:02:26;;;;;;;43.27;16.37;;;-0.20;99.90;;;-0.84;98.15;100008.50;5043604;28;20932;-70
2023/02/13 06:04:53;;;;;;;43.23;16.23;;;-0.20;99.90;;;-0.76;98.43;100020.41;5044185;28;20461;-70
2023/02/13 06:07:22;;;;;;;39.70;16.47;;;-0.10;99.90;;;-0.78;98.64;100018.78;5038129;28;21039;-69
2023/02/13 06:09:49;;;;;;;53.13;18.73;;;-0.20;99.90;;;-0.92;99.08;100035.50;5045759;28;20465;-70
2023/02/13 06:12:16;;;;;;;87.57;19.50;;;-0.20;99.90;;;-1.02;99.26;100029.91;5041521;28;20457;-72
2023/02/13 06:14:43;;;;;;;64.43;19.27;;;-0.30;99.90;;;-1.04;99.54;100015.88;5028715;28;20464;-71
2023/02/13 06:17:11;;;;;;;41.13;18.40;;;-0.30;99.90;;;-0.80;99.37;100049.88;5037704;28;20573;-73
2023/02/13 06:19:38;;;;;;;60.20;19.97;;;-0.20;99.90;;;-0.82;98.59;100035.84;5036505;28;20947;-74
2023/02/13 06:22:06;;;;;;;66.83;20.60;;;-0.20;99.90;;;-0.94;98.62;100032.97;5040672;28;20475;-74
2023/02/13 06:24:34;;;;;;;68.67;20.30;;;-0.20;99.90;;;-1.54;98.52;99943.69;5035327;28;20453;-74
2023/02/13 06:27:02;;;;;;;51.77;17.33;;;-0.20;99.90;;;-0.90;98.90;100038.97;5033062;28;20461;-74
2023/02/13 06:29:30;;;;;;;42.83;18.30;;;-0.20;99.90;;;-0.86;98.61;100046.63;5054377;28;20956;-75
2023/02/13 06:31:57;;;;;;;68.40;18.50;;;-0.20;99.90;;;-0.83;99.25;100037.63;5046100;28;20879;-75
2023/02/13 06:34:25;;;;;;;40.47;17.00;;;-0.20;99.90;;;-0.78;98.73;100054.13;5071532;28;20946;-73
2023/02/13 06:36:52;;;;;;;35.20;15.97;;;-0.10;99.90;;;-0.72;98.83;100053.78;5037376;28;20913;-71
2023/02/13 06:39:21;;;;;;;55.47;19.00;;;-0.10;99.90;;;-0.80;98.41;100049.88;5056409;28;20501;-73
2023/02/13 06:41:49;;;;;;;76.03;18.80;;;-0.10;99.90;;;-0.96;98.61;100039.31;5035908;28;20475;-74
2023/02/13 06:44:17;;;;;;;40.63;18.23;;;-0.20;99.90;;;-0.79;98.69;100056.88;5037036;28;21009;-73
2023/02/13 06:46:44;;;;;;;58.23;18.00;;;-0.20;99.90;;;-0.90;98.63;100050.41;5057056;28;20561;-73
2023/02/13 06:49:11;;;;;;;49.77;16.60;;;-0.20;99.90;;;-0.79;98.10;100052.41;5033781;28;20456;-76
2023/02/13 06:51:38;;;;;;;37.00;15.60;;;-0.20;99.90;;;-0.62;97.99;100055.84;5034753;28;20493;-75
2023/02/13 06:54:07;;;;;;;24.87;14.57;;;-0.10;99.90;;;-0.77;98.74;100068.25;5038288;28;20459;-72
2023/02/13 06:56:35;;;;;;;39.63;15.80;;;-0.20;99.90;;;-0.82;97.86;100065.88;5036379;28;20492;-73
2023/02/13 06:59:03;;;;;;;34.03;15.33;;;-0.10;99.90;;;-0.62;97.74;100063.81;5055682;28;20452;-73
2023/02/13 07:01:31;;;;;;;81.55;21.02;;;-0.10;99.90;;;-0.77;96.73;100063.78;5040779;28;20451;-72
2023/02/13 07:03:59;;;;;;;41.30;15.73;;;-0.20;99.90;;;-0.62;97.67;100061.16;5035071;28;20205;-71
2023/02/13 07:06:26;;;;;;;46.77;15.40;;;-0.10;99.90;;;-0.83;97.43;100045.59;5042140;28;20452;-72
2023/02/13 07:08:57;;;;;;;50.43;16.67;;;-0.10;99.90;;;-0.68;98.22;100059.75;5063094;28;20458;-72
2023/02/13 07:11:25;;;;;;;49.80;16.70;;;-0.10;99.90;;;-0.90;97.37;100017.72;5044563;28;20449;-73
2023/02/13 07:13:52;;;;;;;28.73;14.37;;;-0.10;99.90;;;-0.45;97.10;100076.94;5075108;28;20457;-71
2023/02/13 07:16:21;;;;;;;50.10;15.07;;;0.00;99.90;;;-0.45;96.88;100065.44;5058072;28;20476;-74
2023/02/13 07:18:49;;;;;;;31.37;13.07;;;0.00;99.90;;;-0.47;95.95;100054.91;5046868;28;20919;-73
2023/02/13 07:21:16;;;;;;;31.93;14.47;;;0.10;99.90;;;-0.24;95.71;100073.03;5058498;28;20461;-73
2023/02/13 07:23:44;;;;;;;38.00;14.17;;;0.20;99.90;;;-0.88;95.31;99979.50;5043666;28;21418;-74
2023/02/13 07:26:11;;;;;;;39.87;14.63;;;0.20;99.90;;;-0.16;94.91;100066.28;5039438;28;20462;-73
2023/02/13 07:28:38;;;;;;;41.87;13.53;;;0.30;99.90;;;-0.21;95.03;100078.19;5040288;28;21224;-72
2023/02/13 07:31:06;;;;;;;41.03;13.77;;;0.30;99.90;;;-0.19;95.11;100063.00;5051548;28;20447;-72
2023/02/13 07:33:36;;;;;;;36.63;15.10;;;0.30;99.90;;;-0.57;95.14;100037.84;5043621;28;20911;-73
2023/02/13 07:36:04;;;;;;;45.67;15.87;;;0.30;99.90;;;-0.31;95.95;100073.44;5066908;28;20467;-72
2023/02/13 07:38:33;;;;;;;39.23;14.90;;;0.20;99.90;;;-0.02;95.06;100073.41;5071148;28;20760;-71
2023/02/13 07:41:01;;;;;;;35.70;14.33;;;0.40;99.90;;;0.17;93.82;100074.88;5023223;28;20642;-74
2023/02/13 07:43:29;;;;;;;30.43;15.00;;;0.60;99.90;;;0.36;92.92;100073.69;5040334;28;20455;-71
2023/02/13 07:45:59;;;;;;;28.50;16.30;;;0.60;99.90;;;0.43;92.60;100080.34;5069037;28;20453;-73
2023/02/13 07:48:27;;;;;;;29.37;14.87;;;0.70;99.90;;;0.53;92.23;100073.47;5040096;28;20457;-72
2023/02/13 07:50:59;;;;;;;27.50;13.00;;;0.80;99.90;;;0.63;92.10;100073.72;5031838;28;20456;-72
2023/02/13 07:53:27;;;;;;;23.57;14.07;;;0.90;99.90;;;0.69;91.87;100086.63;5037622;28;20460;-72
2023/02/13 07:55:54;;;;;;;27.97;13.63;;;1.00;99.90;;;0.89;91.10;100086.25;5067443;28;20457;-75
2023/02/13 07:58:21;;;;;;;53.17;15.47;;;1.10;99.90;;;1.06;90.33;100087.75;5039507;28;20469;-74
2023/02/13 08:00:49;;;;;;;34.50;14.27;;;1.30;99.90;;;1.06;89.71;100088.63;5035900;28;20461;-71
2023/02/13 08:03:16;;;;;;;78.47;20.33;;;1.40;99.90;;;0.96;89.30;100082.22;5042672;28;20468;-71
2023/02/13 08:05:49;;;;;;;23.57;14.90;;;1.30;99.90;;;0.96;90.62;100083.09;5040406;28;20998;-76
2023/02/13 08:08:17;;;;;;;31.43;14.67;;;1.40;99.90;;;0.81;91.72;100087.59;5055377;28;20568;-72
2023/02/13 08:13:30;;;;;;;25.27;16.77;;;1.20;99.90;;;0.64;92.18;100086.06;5051304;28;20495;-72
2023/02/13 08:15:57;;;;;;;28.17;17.33;;;1.20;99.90;;;0.93;92.11;100091.28;5032325;28;20472;-71
2023/02/13 08:18:24;;;;;;;26.20;15.37;;;1.30;99.90;;;0.46;92.70;100087.28;5041288;28;20537;-72
2023/02/13 08:20:52;;;;;;;26.60;16.30;;;1.20;99.90;;;0.71;93.63;100086.53;5042753;28;20463;-72
2023/02/13 08:23:20;;;;;;;40.50;17.83;;;1.20;99.90;;;0.64;93.53;100091.41;5042411;28;20482;-72
2023/02/13 08:25:48;;;;;;;27.43;17.77;;;1.30;99.90;;;0.61;94.03;100083.63;5074424;28;20460;-71
2023/02/13 08:28:17;;;;;;;28.30;18.30;;;1.30;99.90;;;0.79;92.82;100083.34;5042078;28;20471;-72
2023/02/13 08:30:44;;;;;;;27.47;18.10;;;1.40;99.90;;;0.97;92.02;100082.13;5041405;28;20816;-71
2023/02/13 08:33:11;;;;;;;27.67;18.10;;;1.50;99.90;;;1.14;91.07;100080.13;5037517;28;20557;-75
2023/02/13 08:35:38;;;;;;;23.30;16.37;;;1.70;99.90;;;0.96;90.47;100067.09;5043541;28;20468;-75
2023/02/13 08:38:05;;;;;;;26.30;16.20;;;1.80;99.90;;;0.84;90.87;100070.59;5042811;28;20476;-75
2023/02/13 08:40:34;;;;;;;25.80;16.87;;;1.70;99.90;;;0.86;91.43;100078.47;5040878;28;20453;-76
2023/02/13 08:43:02;;;;;;;30.70;18.00;;;1.60;99.90;;;1.03;91.37;100083.53;5045854;28;20456;-78
2023/02/13 08:45:30;;;;;;;27.67;16.80;;;1.60;99.90;;;0.81;91.11;100065.47;5033753;28;20500;-73
2023/02/13 08:47:58;;;;;;;21.60;14.93;;;1.60;99.90;;;1.31;90.11;100088.78;5043911;28;20465;-71
2023/02/13 08:50:26;;;;;;;23.10;15.43;;;1.70;99.90;;;1.34;89.17;100094.75;5035954;28;20495;-71
2023/02/13 08:52:53;;;;;;;25.60;17.00;;;1.90;99.90;;;1.27;88.98;100090.78;5068355;28;20454;-72
2023/02/13 08:55:21;;;;;;;19.70;15.40;;;1.90;99.90;;;1.23;88.85;100092.81;5040191;28;20464;-71
2023/02/13 08:57:50;;;;;;;23.30;16.30;;;1.90;99.90;;;1.50;88.33;100089.22;5038860;28;20763;-73
2023/02/13 09:00:17;;;;;;;25.20;15.17;;;1.90;99.90;;;1.47;87.87;100067.28;5037636;28;20589;-74
2023/02/13 09:02:45;;;;;;;21.50;16.10;;;2.00;99.90;;;1.73;86.88;100067.25;5037441;28;20473;-71
2023/02/13 09:05:12;;;;;;;21.67;17.30;;;2.10;99.60;;;1.89;85.44;100081.19;5059127;28;20450;-72
2023/02/13 09:07:40;;;;;;;21.60;15.03;;;2.30;96.90;;;1.80;86.11;100076.53;5060864;28;20445;-71
2023/02/13 09:10:08;;;;;;;21.37;15.93;;;2.20;96.10;;;1.89;85.73;100081.19;5040360;28;20951;-72
2023/02/13 09:12:36;;;;;;;22.53;16.40;;;2.30;96.10;;;1.89;85.97;100059.84;5071955;28;20457;-71
2023/02/13 09:15:05;;;;;;;19.20;14.47;;;2.40;96.10;;;2.25;84.68;100076.88;5039937;28;20531;-72
2023/02/13 09:17:33;;;;;;;17.37;14.07;;;2.50;95.70;;;2.04;84.38;100081.06;5044614;28;20502;-71
2023/02/13 09:20:01;;;;;;;23.90;16.87;;;2.50;94.30;;;2.02;84.05;100080.31;5041570;28;20456;-70
2023/02/13 09:22:29;;;;;;;22.67;15.50;;;2.50;93.80;;;2.21;84.71;100071.84;5076034;28;20515;-74
2023/02/13 09:24:59;;;;;;;24.37;16.10;;;2.50;94.50;;;2.20;84.15;100070.16;5033933;28;20579;-71
2023/02/13 09:27:27;;;;;;;21.00;14.50;;;2.60;93.80;;;2.29;84.19;100073.97;5040541;28;20540;-70
2023/02/13 09:29:54;;;;;;;20.90;16.40;;;2.70;94.00;;;2.58;83.35;100079.00;5037895;28;20500;-71
2023/02/13 09:32:23;;;;;;;21.00;16.43;;;2.90;93.70;;;2.67;82.16;100068.47;5041921;28;20476;-71
2023/02/13 09:34:50;;;;;;;20.43;16.83;;;3.00;92.80;;;2.84;80.81;100074.38;5037400;28;20544;-72
2023/02/13 09:37:18;;;;;;;23.53;17.13;;;3.10;91.80;;;2.57;83.48;100077.28;5038586;28;20531;-73
2023/02/13 09:39:46;;;;;;;22.47;16.30;;;3.00;92.30;;;2.71;82.49;100079.78;5054145;28;20454;-72
2023/02/13 09:42:19;;;;;;;23.90;15.63;;;3.00;92.70;;;2.63;83.88;100076.81;5053764;28;20457;-72
2023/02/13 09:44:50;;;;;;;21.60;15.30;;;3.00;93.20;;;2.77;82.78;100081.16;5034345;28;20592;-71
2023/02/13 09:47:31;;;;;;;20.20;15.97;;;3.10;93.20;;;2.75;82.55;100081.25;5070770;28;20566;-71
2023/02/13 09:50:04;;;;;;;25.93;17.93;;;3.10;92.70;;;2.61;82.81;100076.09;5037758;28;20460;-72
2023/02/13 09:52:34;;;;;;;21.83;17.67;;;3.10;92.40;;;2.66;83.61;100073.94;5068241;28;20449;-70
2023/02/13 09:55:02;;;;;;;24.30;17.73;;;3.00;93.20;;;2.71;82.90;100074.44;5038226;28;20510;-71
2023/02/13 09:57:35;;;;;;;24.60;16.53;;;3.10;93.00;;;2.92;82.42;100076.47;5037276;28;21004;-70
2023/02/13 10:00:13;;;;;;;22.53;16.23;;;3.20;92.80;;;2.29;83.50;100021.47;5034573;28;20506;-71
2023/02/13 10:03:04;;;;;;;22.57;16.43;;;3.20;92.50;;;2.78;82.44;100086.34;5040715;28;20577;-71
2023/02/13 10:05:55;;;;;;;21.07;16.43;;;3.20;92.50;;;3.00;81.86;100084.75;5031961;28;22363;-72
2023/02/13 10:08:37;;;;;;;26.00;17.80;;;3.30;92.50;;;2.74;83.25;100082.22;5050962;28;20456;-73
2023/02/13 10:11:19;;;;;;;25.00;16.87;;;3.20;92.40;;;2.95;82.20;100087.78;5065246;28;20453;-71
2023/02/13 10:14:00;;;;;;;22.27;16.83;;;3.30;92.80;;;2.89;82.11;100076.69;5033277;28;20556;-70
2023/02/13 10:16:32;;;;;;;19.07;16.13;;;3.40;91.80;;;2.76;82.74;100072.28;5037637;28;20442;-72
2023/02/13 10:19:06;;;;;;;22.33;16.57;;;3.30;92.00;;;2.77;83.96;100063.31;5039908;28;20565;-72
2023/02/13 10:21:41;;;;;;;28.43;18.03;;;3.30;92.90;;;3.05;82.36;100073.75;5040985;28;20453;-71
2023/02/13 10:24:14;;;;;;;23.80;17.27;;;3.40;92.50;;;2.83;83.10;100068.19;5043116;28;20449;-71
2023/02/13 10:26:44;;;;;;;26.35;20.75;;;3.40;91.90;;;3.14;83.37;100074.84;5034006;28;20464;-72
2023/02/13 10:32:10;;;;;;;21.33;18.13;;;3.60;92.70;;;3.15;82.04;100061.38;5039282;28;20484;-73
2023/02/13 10:34:45;;;;;;;23.37;18.50;;;3.60;91.80;;;3.34;81.98;100071.50;5039182;28;20457;-71
2023/02/13 10:37:16;;;;;;;24.17;18.10;;;3.80;91.60;;;3.31;82.38;100070.88;5057217;28;20576;-74
2023/02/13 10:39:47;;;;;;;24.13;18.50;;;3.80;91.50;;;3.49;80.86;100068.59;5038546;28;20953;-76
2023/02/13 10:42:25;;;;;;;23.23;17.60;;;3.90;91.10;;;3.69;80.57;100067.88;5051449;28;20461;-75
2023/02/13 10:45:10;;;;;;;22.80;16.77;;;4.00;91.00;;;4.01;79.47;100069.00;5035416;28;20453;-71
2023/02/13 10:47:57;;;;;;;21.90;18.20;;;4.20;90.40;;;4.05;79.30;100064.25;5032749;28;20465;-75
2023/02/13 10:50:33;;;;;;;23.97;17.97;;;4.40;88.70;;;4.14;79.70;100060.81;5069956;28;20457;-73
2023/02/13 10:53:13;;;;;;;21.70;17.27;;;4.50;89.40;;;4.33;78.34;100062.88;5037673;28;20444;-72
2023/02/13 10:56:07;;;;;;;21.63;16.53;;;4.70;88.70;;;4.36;78.62;100067.13;5057641;28;20460;-73
2023/02/13 10:58:58;;;;;;;21.53;16.90;;;4.80;87.90;;;4.73;77.51;100064.09;5048989;28;20469;-72
2023/02/13 11:01:33;;;;;;;20.37;16.20;;;5.00;87.50;;;4.87;76.19;100054.06;5060664;28;20515;-72
2023/02/13 11:04:08;;;;;;;23.10;16.90;;;5.20;86.00;;;4.91;76.54;100058.16;5048412;28;20444;-73
2023/02/13 11:06:42;;;;;;;20.90;16.97;;;5.30;85.10;;;4.44;78.53;100059.31;5057168;28;20457;-74
2023/02/13 11:09:12;;;;;;;26.13;18.17;;;5.00;85.60;;;4.78;76.88;100056.53;5038935;28;20965;-73
2023/02/13 11:11:42;;;;;;;19.83;17.70;;;5.10;86.40;;;4.90;76.01;100053.78;5039221;28;20452;-73
2023/02/13 11:14:14;;;;;;;21.83;16.63;;;5.20;85.40;;;4.81;76.95;100048.25;5051294;28;20458;-73
2023/02/13 11:16:49;;;;;;;25.23;18.30;;;5.20;85.50;;;4.82;76.02;100047.25;5035120;28;20456;-72